Wilsonia, California
Current Conditions -  °F | °C
As of 12:56 PM on Thursday 20 Nov 2014 (Local Time) from KBIH Reporting Station
Clear Clear  
Wind Chill: 14°   Ceiling: Unl
Heat Index: 14°   Visibility: 10mi
Dew Point: -8°   Wind: 3mph
Humidity: 20%   Direction: NA
Pressure: 29.98"   Gusts: NA
Location:  36.7872°N, 118.66°W
Report Text: KBIH 202056Z AUTO VRB03KT 10SM CLR 14/M08 A2998 RMK AO2 SLP143 T01441083 58032
Loading
Personal Weather Stations






























Interactive Weather Map New forecast layout! Learn more

10-Day Weather Forecast

Advertisements
Track Severe Weather on mobile